James T. Quigg — WDA4612 — position and weather

sailwx.info

Track history (hours):
 
Tides and Currents Weather Stations Pressure Air Temp Water Temp Dewpoint Dewpoint Depression Visibility Wind Speed Wind Dir Waves Ship Positions

James T. Quigg

Owner: Harley Marine Services, INC, Seattle, WA. More information available from US FCC via Universal Licensing System and Coast Guard Vessel Documentation Center.

Last reported at 2017-Oct-20 04:40 UTC. Time now 2017-Oct-20 11:04 UTC.
Position N 48°50' W 122°43'.

Length 30 m; draft 4 m.

Type: Tug. MMSI: 365762734.

Date/timePositionNaut miles runAvg speedWind from/ knotsBaromVisibWave heightAir tempDewpointWater temp
2017-Oct-20 04:40N 48°50' W 122°43'2 2.3
2017-Oct-20 03:50N 48°48' W 122°45'3 9.0
2017-Oct-20 03:29N 48°45' W 122°45'4 8.6
2017-Oct-20 03:00N 48°41' W 122°42'5 9.2
2017-Oct-20 02:30N 48°37' W 122°39'4 7.9
2017-Oct-20 02:00N 48°33' W 122°40'3 5.8
2017-Oct-20 01:30N 48°31' W 122°37'0 0.2
2017-Oct-20 01:00N 48°31' W 122°37'0 0.6
2017-Oct-20 00:30N 48°31' W 122°37'0 0.1
2017-Oct-20 00:00N 48°31' W 122°36'0 0.1
2017-Oct-19 23:30N 48°31' W 122°36'0 0.5
2017-Oct-19 22:51N 48°31' W 122°37'0 0.0
2017-Oct-19 22:29N 48°31' W 122°37'0 0.0
2017-Oct-19 21:54N 48°31' W 122°37'0 0.0
2017-Oct-19 21:24N 48°31' W 122°37'0 0.0
2017-Oct-19 20:59N 48°31' W 122°37'0 0.0
2017-Oct-19 20:30N 48°31' W 122°37'0 0.0
2017-Oct-19 19:53N 48°31' W 122°37'0 0.0
2017-Oct-19 19:21N 48°31' W 122°37'0 0.0
2017-Oct-19 19:00N 48°31' W 122°37'0 0.0
2017-Oct-19 18:30N 48°31' W 122°37'0 0.0
2017-Oct-19 18:00N 48°31' W 122°37'0 0.0
2017-Oct-19 17:30N 48°31' W 122°37'0 0.0
2017-Oct-19 17:00N 48°31' W 122°37'0 0.0
2017-Oct-19 16:30N 48°31' W 122°37'0 0.0
2017-Oct-19 16:00N 48°31' W 122°37'0 0.0
2017-Oct-19 15:29N 48°31' W 122°37'0 0.0
2017-Oct-19 15:00N 48°31' W 122°37'0 0.0
2017-Oct-19 14:30N 48°31' W 122°37'0 0.0
2017-Oct-19 14:00N 48°31' W 122°37'0 0.0
2017-Oct-19 13:30N 48°31' W 122°37'0 0.0
2017-Oct-19 13:00N 48°31' W 122°37'0 0.0
2017-Oct-19 12:30N 48°31' W 122°37'0 0.0
2017-Oct-19 12:00N 48°31' W 122°37'0 0.0
2017-Oct-19 11:30N 48°31' W 122°37'0 0.0
2017-Oct-19 11:00N 48°31' W 122°37'0 0.0
2017-Oct-19 10:30N 48°31' W 122°37'0 0.0
2017-Oct-19 10:00N 48°31' W 122°37'0 0.0
2017-Oct-19 09:30N 48°31' W 122°37'0 0.0
2017-Oct-19 09:00N 48°31' W 122°37'0 0.0
2017-Oct-19 08:30N 48°31' W 122°37'0 0.0
2017-Oct-19 08:00N 48°31' W 122°37'0 0.0
2017-Oct-19 07:30N 48°31' W 122°37'0 0.0
2017-Oct-19 07:00N 48°31' W 122°37'0 0.0
2017-Oct-19 06:30N 48°31' W 122°37'0 0.0
2017-Oct-19 06:00N 48°31' W 122°37'0 0.0
2017-Oct-19 05:30N 48°31' W 122°37'0 0.0
2017-Oct-19 05:00N 48°31' W 122°37'0 0.0
2017-Oct-19 04:29N 48°31' W 122°37'2 4.5
2017-Oct-19 03:59N 48°32' W 122°34'5 9.6
2017-Oct-19 03:30N 48°37' W 122°35'5 9.6
2017-Oct-19 03:00N 48°39' W 122°41'5 9.9
2017-Oct-19 02:30N 48°43' W 122°46'5 9.8
2017-Oct-19 01:59N 48°47' W 122°52'5 9.8
2017-Oct-19 01:29N 48°49' W 122°58'510.0
2017-Oct-19 01:00N 48°52' W 123°04'510.3
2017-Oct-19 00:30N 48°55' W 123°10'5 9.6
2017-Oct-19 00:00N 48°58' W 123°16'5 9.2
2017-Oct-18 23:30N 49°02' W 123°20'4 8.8
2017-Oct-18 23:00N 49°05' W 123°24'4 8.3
2017-Oct-18 22:30N 49°09' W 123°23'4 8.1
2017-Oct-18 22:00N 49°13' W 123°21'4 8.9
2017-Oct-18 21:30N 49°18' W 123°20'5 9.9
2017-Oct-18 21:00N 49°19' W 123°12'4 7.0
2017-Oct-18 20:30N 49°18' W 123°07'1 1.7
2017-Oct-18 20:00N 49°18' W 123°06'2 4.7
2017-Oct-18 19:30N 49°19' W 123°09'2 3.2
2017-Oct-18 19:00N 49°19' W 123°12'1 2.5
2017-Oct-18 18:30N 49°18' W 123°14'2 3.2
2017-Oct-18 18:00N 49°18' W 123°16'2 4.6
2017-Oct-18 17:30N 49°16' W 123°18'2 4.8
2017-Oct-18 17:00N 49°14' W 123°19'2 4.6
2017-Oct-18 16:30N 49°12' W 123°19'2 4.9
2017-Oct-18 16:00N 49°09' W 123°19'2 4.7
2017-Oct-18 15:31N 49°07' W 123°20'2 4.9
2017-Oct-18 15:00N 49°04' W 123°21'6 5.7
2017-Oct-18 14:00N 49°01' W 123°14'3 5.6
2017-Oct-18 13:30N 48°59' W 123°11'3 5.2
2017-Oct-18 13:00N 48°57' W 123°08'3 5.2
2017-Oct-18 12:30N 48°55' W 123°05'2 4.6
2017-Oct-18 12:00N 48°54' W 123°03'2 4.9
2017-Oct-18 11:30N 48°52' W 122°60'2 4.6
2017-Oct-18 11:00N 48°51' W 122°57'2 5.0
2017-Oct-18 10:30N 48°49' W 122°54'2 4.6
2017-Oct-18 10:00N 48°48' W 122°51'3 5.3
2017-Oct-18 09:30N 48°46' W 122°48'2 4.6
2017-Oct-18 09:00N 48°45' W 122°45'3 5.5
2017-Oct-18 08:30N 48°42' W 122°43'3 5.5
2017-Oct-18 08:00N 48°40' W 122°43'3 5.7
2017-Oct-18 07:30N 48°37' W 122°45'3 6.4
2017-Oct-18 07:00N 48°34' W 122°45'3 5.2
2017-Oct-18 06:30N 48°31' W 122°44'3 5.2
2017-Oct-18 06:00N 48°29' W 122°44'2 4.3
2017-Oct-18 05:29N 48°26' W 122°44'2 4.5
2017-Oct-18 05:00N 48°24' W 122°44'2 4.4
2017-Oct-18 04:29N 48°22' W 122°45'2 4.9
2017-Oct-18 03:59N 48°20' W 122°46'7 4.7
2017-Oct-18 02:31N 48°13' W 122°48'1 6.7
2017-Oct-18 02:25N 48°12' W 122°48'4 7.8
2017-Oct-18 01:57N 48°10' W 122°44'4 9.1
2017-Oct-18 01:30N 48°07' W 122°40'4 7.8
2017-Oct-18 01:00N 48°03' W 122°38'4 7.9
2017-Oct-18 00:30N 47°60' W 122°36'4 7.5
2017-Oct-18 00:00N 47°57' W 122°32'3 5.9
2017-Oct-17 23:30N 47°55' W 122°29'3 5.6
2017-Oct-17 23:00N 47°52' W 122°28'3 5.6
2017-Oct-17 22:30N 47°49' W 122°27'3 6.0
2017-Oct-17 22:00N 47°46' W 122°26'3 5.5
2017-Oct-17 21:30N 47°44' W 122°26'3 5.3
2017-Oct-17 21:00N 47°41' W 122°27'2 4.6
2017-Oct-17 20:30N 47°39' W 122°27'3 5.3
2017-Oct-17 20:00N 47°37' W 122°24'2 4.5
2017-Oct-17 19:30N 47°36' W 122°21'1 2.4
2017-Oct-17 19:00N 47°35' W 122°21'0 0.4
2017-Oct-17 18:28N 47°34' W 122°21'0 0.0
2017-Oct-17 17:58N 47°34' W 122°21'0 0.0
2017-Oct-17 17:28N 47°34' W 122°21'0 0.0
2017-Oct-17 16:58N 47°34' W 122°21'0 0.0
2017-Oct-17 16:29N 47°34' W 122°21'0 0.0
2017-Oct-17 15:58N 47°34' W 122°21'0 0.0
2017-Oct-17 15:28N 47°34' W 122°21'0 0.0
2017-Oct-17 14:59N 47°34' W 122°21'0 0.0
2017-Oct-17 14:29N 47°34' W 122°21'0 0.0
2017-Oct-17 13:58N 47°34' W 122°21'0 0.0
2017-Oct-17 13:28N 47°34' W 122°21'0 0.0
2017-Oct-17 12:58N 47°34' W 122°21'0 0.0
2017-Oct-17 12:28N 47°34' W 122°21'0 0.0
2017-Oct-17 11:58N 47°34' W 122°21'0 0.0
2017-Oct-17 11:28N 47°34' W 122°21'0 0.0
2017-Oct-17 10:58N 47°34' W 122°21'0 0.0
2017-Oct-17 10:28N 47°34' W 122°21'0 0.0
2017-Oct-17 09:58N 47°34' W 122°21'0 0.0
2017-Oct-17 09:28N 47°34' W 122°21'0 0.0
2017-Oct-17 08:58N 47°34' W 122°21'0 0.0
2017-Oct-17 08:29N 47°34' W 122°21'0 0.0
2017-Oct-17 07:58N 47°34' W 122°21'0 0.0
2017-Oct-17 07:28N 47°34' W 122°21'0 0.0
2017-Oct-17 06:59N 47°34' W 122°21'0 0.0
2017-Oct-17 06:28N 47°34' W 122°21'0 0.0
2017-Oct-17 05:59N 47°34' W 122°21'0 0.0
2017-Oct-17 05:28N 47°34' W 122°21'0 0.0
2017-Oct-17 04:58N 47°34' W 122°21'0 0.0
2017-Oct-17 04:28N 47°34' W 122°21'0 0.0
2017-Oct-17 04:00N 47°34' W 122°21'0 0.0
2017-Oct-17 03:16N 47°34' W 122°21'0 0.0
2017-Oct-17 02:59N 47°34' W 122°21'0 0.0
2017-Oct-17 02:28N 47°34' W 122°21'0 0.0
2017-Oct-17 01:56N 47°34' W 122°21'0 0.0
2017-Oct-17 01:29N 47°34' W 122°21'0 0.0
2017-Oct-17 00:58N 47°34' W 122°21'0 0.0
2017-Oct-17 00:29N 47°34' W 122°21'0 0.0
2017-Oct-16 23:58N 47°34' W 122°21'0 0.0
2017-Oct-16 23:25N 47°34' W 122°21'0 0.0
2017-Oct-16 22:58N 47°34' W 122°21'0 0.0
2017-Oct-16 22:28N 47°34' W 122°21'0 0.0
2017-Oct-16 21:59N 47°34' W 122°21'0 0.0
2017-Oct-16 21:25N 47°34' W 122°21'0 0.1
2017-Oct-16 21:01N 47°34' W 122°21'0 0.1
2017-Oct-16 20:30N 47°34' W 122°21'0 0.0
2017-Oct-16 20:00N 47°34' W 122°21'0 0.0
2017-Oct-16 19:30N 47°34' W 122°21'0 0.0
2017-Oct-16 19:00N 47°34' W 122°21'0 0.0
2017-Oct-16 18:30N 47°34' W 122°21'0 0.0
2017-Oct-16 18:00N 47°34' W 122°21'1 1.9
2017-Oct-16 17:28N 47°35' W 122°21'0 0.0
2017-Oct-16 16:58N 47°35' W 122°21'0 0.0
2017-Oct-16 16:28N 47°35' W 122°21'0 0.0
2017-Oct-16 15:58N 47°35' W 122°21'0 0.0
2017-Oct-16 15:28N 47°35' W 122°21'0 0.0
2017-Oct-16 14:58N 47°35' W 122°21'0 0.0
2017-Oct-16 14:28N 47°35' W 122°21'0 0.0
2017-Oct-16 13:28N 47°35' W 122°21'0 0.0
2017-Oct-16 12:58N 47°35' W 122°21'0 0.0
2017-Oct-16 12:28N 47°35' W 122°21'0 0.0
2017-Oct-16 11:58N 47°35' W 122°21'0 0.0
2017-Oct-16 11:28N 47°35' W 122°21'0 0.0
2017-Oct-16 10:58N 47°35' W 122°21'0 0.0
2017-Oct-16 10:28N 47°35' W 122°21'0 0.0
2017-Oct-16 09:58N 47°35' W 122°21'0 0.0
2017-Oct-16 09:28N 47°35' W 122°21'0 0.0
2017-Oct-16 08:58N 47°35' W 122°21'0 0.0
2017-Oct-16 08:29N 47°35' W 122°21'0 0.0
2017-Oct-16 07:59N 47°35' W 122°21'0 0.0
2017-Oct-16 07:29N 47°35' W 122°21'0 0.0
2017-Oct-16 06:58N 47°35' W 122°21'0 0.0
2017-Oct-16 06:28N 47°35' W 122°21'0 0.0
2017-Oct-16 05:58N 47°35' W 122°21'0 0.0
2017-Oct-16 05:28N 47°35' W 122°21'0 0.0
2017-Oct-16 04:58N 47°35' W 122°21'0 0.0
2017-Oct-16 04:28N 47°35' W 122°21'0 0.0
2017-Oct-16 03:58N 47°35' W 122°21'0 0.0
2017-Oct-16 03:28N 47°35' W 122°21'0 0.0
2017-Oct-16 02:59N 47°35' W 122°21'0 0.0
2017-Oct-16 02:28N 47°35' W 122°21'0 0.0
2017-Oct-16 01:58N 47°35' W 122°21'0 0.0
2017-Oct-16 01:28N 47°35' W 122°21'0 0.0
2017-Oct-16 00:58N 47°35' W 122°21'0 0.0
2017-Oct-16 00:29N 47°35' W 122°21'1 2.1
2017-Oct-16 00:00N 47°34' W 122°21'0 0.0
2017-Oct-15 23:30N 47°34' W 122°21'0 0.0
2017-Oct-15 23:00N 47°34' W 122°21'0 0.0
2017-Oct-15 22:30N 47°34' W 122°21'0 0.0
2017-Oct-15 22:00N 47°34' W 122°21'0 0.0
2017-Oct-15 21:30N 47°34' W 122°21'0 0.0
2017-Oct-15 21:00N 47°34' W 122°21'0 0.1
2017-Oct-15 20:30N 47°34' W 122°21'0 0.0
2017-Oct-15 20:00N 47°34' W 122°21'0 0.0
2017-Oct-15 19:30N 47°34' W 122°21'0 0.0
2017-Oct-15 19:00N 47°34' W 122°21'0 0.0
2017-Oct-15 18:30N 47°34' W 122°21'0 0.0
2017-Oct-15 18:00N 47°34' W 122°21'0 0.0
2017-Oct-15 17:30N 47°34' W 122°21'1 1.8
2017-Oct-15 16:58N 47°35' W 122°21'0 0.0
2017-Oct-15 16:28N 47°35' W 122°21'0 0.0
2017-Oct-15 15:58N 47°35' W 122°21'0 0.0
2017-Oct-15 15:28N 47°35' W 122°21'0 0.0
2017-Oct-15 14:58N 47°35' W 122°21'0 0.0
2017-Oct-15 13:58N 47°35' W 122°21'0 0.0
2017-Oct-15 13:28N 47°35' W 122°21'0 0.0
2017-Oct-15 12:58N 47°35' W 122°21'0 0.0
2017-Oct-15 12:28N 47°35' W 122°21'0 0.0
2017-Oct-15 11:58N 47°35' W 122°21'0 0.0
2017-Oct-15 11:28N 47°35' W 122°21'0 0.0
2017-Oct-15 10:58N 47°35' W 122°21'0 0.0
2017-Oct-15 10:28N 47°35' W 122°21'0 0.0
2017-Oct-15 09:58N 47°35' W 122°21'0 0.0
2017-Oct-15 09:28N 47°35' W 122°21'0 0.0
2017-Oct-15 08:58N 47°35' W 122°21'0 0.0
2017-Oct-15 08:28N 47°35' W 122°21'0 0.0
2017-Oct-15 07:58N 47°35' W 122°21'0 0.0
2017-Oct-15 07:28N 47°35' W 122°21'0 0.0
2017-Oct-15 06:58N 47°35' W 122°21'0 0.0
2017-Oct-15 06:28N 47°35' W 122°21'0 0.0
2017-Oct-15 05:58N 47°35' W 122°21'0 0.0
2017-Oct-15 05:28N 47°35' W 122°21'0 0.0
2017-Oct-15 04:58N 47°35' W 122°21'0 0.0
2017-Oct-15 04:31N 47°35' W 122°21'0 0.0
2017-Oct-15 03:58N 47°35' W 122°21'0 0.0
2017-Oct-15 03:28N 47°35' W 122°21'0 0.0
2017-Oct-15 02:58N 47°35' W 122°21'0 0.0
2017-Oct-15 02:31N 47°35' W 122°21'0 0.0
2017-Oct-15 01:58N 47°35' W 122°21'0 0.2
2017-Oct-15 01:28N 47°35' W 122°21'0 0.2
2017-Oct-15 01:00N 47°36' W 122°21'2 3.3
2017-Oct-15 00:30N 47°36' W 122°23'3 6.7
2017-Oct-15 00:01N 47°33' W 122°26'4 8.2
2017-Oct-14 23:30N 47°29' W 122°24'4 7.7
2017-Oct-14 23:00N 47°26' W 122°23'3 6.7
2017-Oct-14 22:31N 47°22' W 122°22'4 7.8
2017-Oct-14 22:01N 47°20' W 122°26'3 5.3
2017-Oct-14 21:30N 47°17' W 122°25'1 2.3
2017-Oct-14 20:58N 47°17' W 122°23'0 0.0
2017-Oct-14 20:28N 47°17' W 122°23'0 0.0
2017-Oct-14 19:58N 47°17' W 122°23'0 0.0
2017-Oct-14 19:29N 47°17' W 122°23'0 0.0
2017-Oct-14 19:00N 47°17' W 122°23'0 0.0
2017-Oct-14 18:30N 47°17' W 122°23'0 0.0
2017-Oct-14 18:00N 47°17' W 122°23'0 0.0
2017-Oct-14 17:30N 47°17' W 122°23'0 0.0
2017-Oct-14 17:00N 47°17' W 122°23'0 0.0
2017-Oct-14 16:30N 47°17' W 122°23'0 0.0
2017-Oct-14 16:00N 47°17' W 122°23'0 0.0
2017-Oct-14 15:30N 47°17' W 122°23'0 0.0
2017-Oct-14 15:00N 47°17' W 122°23'0 0.0
2017-Oct-14 14:30N 47°17' W 122°23'0 0.0
2017-Oct-14 14:00N 47°17' W 122°23'0 0.0
2017-Oct-14 13:30N 47°17' W 122°23'0 0.0
2017-Oct-14 13:00N 47°17' W 122°23'0 0.0
2017-Oct-14 12:30N 47°17' W 122°23'0 0.0
2017-Oct-14 12:00N 47°17' W 122°23'0 0.0
2017-Oct-14 11:30N 47°17' W 122°23'0 0.0
2017-Oct-14 11:00N 47°17' W 122°23'0 0.0
2017-Oct-14 10:30N 47°17' W 122°23'0 0.0
2017-Oct-14 10:00N 47°17' W 122°23'0 0.0
2017-Oct-14 09:30N 47°17' W 122°23'0 0.0
2017-Oct-14 09:00N 47°17' W 122°23'0 0.0
2017-Oct-14 08:30N 47°17' W 122°23'0 0.0
2017-Oct-14 08:00N 47°17' W 122°23'0 0.0
2017-Oct-14 07:30N 47°17' W 122°23'0 0.0
2017-Oct-14 07:00N 47°17' W 122°23'0 0.0
2017-Oct-14 06:30N 47°17' W 122°23'0 0.5
2017-Oct-14 06:00N 47°17' W 122°24'1 2.5
2017-Oct-14 05:30N 47°17' W 122°25'1 1.5
2017-Oct-14 05:00N 47°17' W 122°26'1 2.1
2017-Oct-14 04:30N 47°18' W 122°27'3 5.8
2017-Oct-14 04:00N 47°21' W 122°26'3 6.7
2017-Oct-14 03:31N 47°23' W 122°22'3 6.1
2017-Oct-14 03:00N 47°26' W 122°24'3 6.3
2017-Oct-14 02:31N 47°29' W 122°26'3 6.4
2017-Oct-14 02:00N 47°32' W 122°27'3 6.2
2017-Oct-14 01:27N 47°35' W 122°28'3 6.0
2017-Oct-14 01:00N 47°38' W 122°28'3 6.0
2017-Oct-14 00:30N 47°41' W 122°28'3 5.8
2017-Oct-13 23:56N 47°44' W 122°27'3 5.8
2017-Oct-13 23:28N 47°47' W 122°27'3 5.9
2017-Oct-13 23:00N 47°50' W 122°28'3 5.8
2017-Oct-13 22:30N 47°52' W 122°29'3 5.6
2017-Oct-13 22:00N 47°55' W 122°31'3 5.5
2017-Oct-13 21:30N 47°57' W 122°34'3 5.8
2017-Oct-13 21:00N 47°59' W 122°37'23 6.2
2017-Oct-13 17:23N 48°20' W 122°47'3 5.9
2017-Oct-13 16:54N 48°23' W 122°46'2 5.1
2017-Oct-13 16:30N 48°25' W 122°45'3 5.2
2017-Oct-13 16:01N 48°27' W 122°45'3 5.1
2017-Oct-13 15:30N 48°30' W 122°45'3 5.5
2017-Oct-13 15:00N 48°33' W 122°45'3 5.7
2017-Oct-13 14:31N 48°36' W 122°45'3 6.3
2017-Oct-13 14:01N 48°39' W 122°44'3 6.6
2017-Oct-13 13:30N 48°42' W 122°45'4 7.1
2017-Oct-13 13:00N 48°45' W 122°48'4 7.6
2017-Oct-13 12:30N 48°47' W 122°53'4 7.8
2017-Oct-13 12:00N 48°49' W 122°58'4 7.8
2017-Oct-13 11:30N 48°51' W 123°03'4 7.5
2017-Oct-13 10:59N 48°53' W 123°07'4 7.5
2017-Oct-13 10:31N 48°56' W 123°11'4 7.3
2017-Oct-13 10:01N 48°58' W 123°15'4 7.4
2017-Oct-13 09:30N 49°01' W 123°20'4 7.5
2017-Oct-13 09:01N 49°03' W 123°24'3 6.8
2017-Oct-13 08:30N 49°06' W 123°25'3 6.7
2017-Oct-13 08:01N 49°10' W 123°24'3 6.7
2017-Oct-13 07:31N 49°13' W 123°23'3 6.4
2017-Oct-13 07:00N 49°16' W 123°21'3 6.5
2017-Oct-13 06:31N 49°18' W 123°18'3 6.3
2017-Oct-13 06:01N 49°19' W 123°13'3 5.8
2017-Oct-13 05:31N 49°19' W 123°09'2 4.9
2017-Oct-13 05:01N 49°18' W 123°06'3 5.0
2017-Oct-13 04:30N 49°18' W 123°02'2 4.7
2017-Oct-13 04:01N 49°18' W 122°58'2 4.9
2017-Oct-13 03:31N 49°18' W 122°54'1 2.2
2017-Oct-13 03:01N 49°18' W 122°53'0 0.1
2017-Oct-13 02:31N 49°18' W 122°53'0 0.0
2017-Oct-13 01:58N 49°18' W 122°53'0 0.0
2017-Oct-13 01:28N 49°18' W 122°53'0 0.0
2017-Oct-13 00:58N 49°18' W 122°53'0 0.0
2017-Oct-13 00:28N 49°18' W 122°53'0 0.0
2017-Oct-12 23:58N 49°18' W 122°53'0 0.0
2017-Oct-12 23:28N 49°18' W 122°53'0 0.0
2017-Oct-12 22:58N 49°18' W 122°53'0 0.0
2017-Oct-12 22:28N 49°18' W 122°53'0 0.0
2017-Oct-12 21:58N 49°18' W 122°53'0 0.0
2017-Oct-12 21:25N 49°18' W 122°53'0 0.0
2017-Oct-12 20:58N 49°18' W 122°53'0 0.0
2017-Oct-12 20:28N 49°18' W 122°53'0 0.0
2017-Oct-12 19:58N 49°18' W 122°53'0 0.0
2017-Oct-12 19:28N 49°18' W 122°53'0 0.0
2017-Oct-12 18:58N 49°18' W 122°53'0 0.0
2017-Oct-12 18:28N 49°18' W 122°53'0 0.0
2017-Oct-12 18:00N 49°18' W 122°53'0 0.0
2017-Oct-12 17:30N 49°18' W 122°53'0 0.0
2017-Oct-12 17:00N 49°18' W 122°53'0 0.0
2017-Oct-12 16:30N 49°18' W 122°53'0 0.0
2017-Oct-12 16:00N 49°18' W 122°53'0 0.0
2017-Oct-12 15:30N 49°18' W 122°53'0 0.0
2017-Oct-12 15:00N 49°18' W 122°53'0 0.0
2017-Oct-12 14:30N 49°18' W 122°53'0 0.0
2017-Oct-12 14:00N 49°18' W 122°53'0 0.0
2017-Oct-12 13:30N 49°18' W 122°53'0 0.0
2017-Oct-12 13:00N 49°18' W 122°53'0 0.0
2017-Oct-12 12:30N 49°18' W 122°53'0 0.0
2017-Oct-12 12:00N 49°18' W 122°53'0 0.0
2017-Oct-12 11:31N 49°18' W 122°53'0 0.0
2017-Oct-12 11:00N 49°18' W 122°53'0 0.0
2017-Oct-12 10:30N 49°18' W 122°53'0 0.0
2017-Oct-12 10:00N 49°18' W 122°53'0 0.0
2017-Oct-12 09:30N 49°18' W 122°53'0 0.0
2017-Oct-12 09:00N 49°18' W 122°53'0 0.0
2017-Oct-12 08:30N 49°18' W 122°53'0 0.0
2017-Oct-12 08:00N 49°18' W 122°53'0 0.0
2017-Oct-12 07:30N 49°18' W 122°53'0 0.0
2017-Oct-12 07:00N 49°18' W 122°53'1 1.3
2017-Oct-12 06:30N 49°18' W 122°54'3 5.2
2017-Oct-12 06:00N 49°18' W 122°58'3 5.7
2017-Oct-12 05:30N 49°18' W 123°02'2 3.4
2017-Oct-12 05:00N 49°18' W 123°05'0 0.4
2017-Oct-12 04:30N 49°18' W 123°05'2 3.8
2017-Oct-12 04:00N 49°19' W 123°08'3 6.9
2017-Oct-12 03:30N 49°19' W 123°13'3 5.9
2017-Oct-12 03:00N 49°17' W 123°17'3 5.6
2017-Oct-12 02:31N 49°15' W 123°18'2 4.9
2017-Oct-12 02:00N 49°12' W 123°19'2 3.3
2017-Oct-12 01:31N 49°11' W 123°19'1 2.1
2017-Oct-12 01:00N 49°10' W 123°19'2 3.5
2017-Oct-12 00:30N 49°08' W 123°20'2 4.0
2017-Oct-12 00:00N 49°06' W 123°20'2 3.9
2017-Oct-11 23:30N 49°04' W 123°20'2 4.0
2017-Oct-11 23:00N 49°02' W 123°18'2 4.2
2017-Oct-11 22:30N 49°01' W 123°16'2 4.5
2017-Oct-11 22:00N 48°59' W 123°13'3 5.2
2017-Oct-11 21:30N 48°58' W 123°10'2 4.9
2017-Oct-11 21:00N 48°56' W 123°08'2 4.6
2017-Oct-11 20:30N 48°54' W 123°05'2 4.3
2017-Oct-11 20:00N 48°53' W 123°02'2 4.3
2017-Oct-11 19:30N 48°52' W 122°60'2 4.4
2017-Oct-11 19:00N 48°51' W 122°57'2 4.4
2017-Oct-11 18:31N 48°49' W 122°54'2 4.7
2017-Oct-11 18:00N 48°48' W 122°52'3 4.8
2017-Oct-11 17:29N 48°47' W 122°48'3 5.2
2017-Oct-11 17:00N 48°45' W 122°45'72 4.2
2017-Oct-10 23:57N 47°34' W 122°21'0 0.0
2017-Oct-10 23:30N 47°34' W 122°21'0 0.0
2017-Oct-10 23:00N 47°34' W 122°21'0 0.0
2017-Oct-10 22:30N 47°34' W 122°21'0 0.0
2017-Oct-10 22:00N 47°34' W 122°21'0 0.0
2017-Oct-10 21:30N 47°34' W 122°21'0 0.0
2017-Oct-10 21:00N 47°34' W 122°21'0 0.0
2017-Oct-10 20:30N 47°34' W 122°21'0 0.0
2017-Oct-10 20:00N 47°34' W 122°21'0 0.0
2017-Oct-10 19:30N 47°34' W 122°21'0 0.0
2017-Oct-10 19:00N 47°34' W 122°21'0 0.0
2017-Oct-10 18:30N 47°34' W 122°21'0 0.0
2017-Oct-10 18:00N 47°34' W 122°21'0 0.0
2017-Oct-10 17:30N 47°34' W 122°21'0 0.0
2017-Oct-10 17:00N 47°34' W 122°21'0 0.0
2017-Oct-10 16:30N 47°34' W 122°21'0 0.0
2017-Oct-10 16:00N 47°34' W 122°21'0 0.0
2017-Oct-10 15:30N 47°34' W 122°21'0 0.0
2017-Oct-10 15:00N 47°34' W 122°21'0 0.1
2017-Oct-10 14:00N 47°34' W 122°21'0 0.0
2017-Oct-10 13:30N 47°34' W 122°21'0 0.0
2017-Oct-10 13:00N 47°34' W 122°21'0 0.0
2017-Oct-10 12:30N 47°34' W 122°21'0 0.0
2017-Oct-10 12:00N 47°34' W 122°21'0 0.0
2017-Oct-10 11:30N 47°34' W 122°21'0 0.0
2017-Oct-10 11:00N 47°34' W 122°21'0 0.0
2017-Oct-10 10:30N 47°34' W 122°21'0 0.0
2017-Oct-10 10:00N 47°34' W 122°21'0 0.0
2017-Oct-10 09:30N 47°34' W 122°21'0 0.0
2017-Oct-10 09:00N 47°34' W 122°21'0 0.0
2017-Oct-10 08:30N 47°34' W 122°21'0 0.0
2017-Oct-10 08:00N 47°34' W 122°21'0 0.0
2017-Oct-10 07:30N 47°34' W 122°21'0 0.0
2017-Oct-10 07:00N 47°34' W 122°21'0 0.0
2017-Oct-10 06:28N 47°34' W 122°21'0 0.0
2017-Oct-10 06:00N 47°34' W 122°21'0 0.0
2017-Oct-10 05:30N 47°34' W 122°21'0 0.0
2017-Oct-10 05:00N 47°34' W 122°21'  
Track history (hours):
 
Tides and Currents Weather Stations Pressure Air Temp Water Temp Dewpoint Dewpoint Depression Visibility Wind Speed Wind Dir Waves Ship Positions

James T. Quigg

Owner: Harley Marine Services, INC, Seattle, WA. More information available from US FCC via Universal Licensing System and Coast Guard Vessel Documentation Center.

Last reported at 2017-Oct-20 04:40 UTC. Time now 2017-Oct-20 11:04 UTC.
Position N 48°50' W 122°43'.

Length 30 m; draft 4 m.

Type: Tug. MMSI: 365762734.

Date/timePositionNaut miles runAvg speedWind from/ knotsBaromVisibWave heightAir tempDewpointWater temp
2017-Oct-20 04:40N 48°50' W 122°43'2 2.3
2017-Oct-20 03:50N 48°48' W 122°45'3 9.0
2017-Oct-20 03:29N 48°45' W 122°45'4 8.6
2017-Oct-20 03:00N 48°41' W 122°42'5 9.2
2017-Oct-20 02:30N 48°37' W 122°39'4 7.9
2017-Oct-20 02:00N 48°33' W 122°40'3 5.8
2017-Oct-20 01:30N 48°31' W 122°37'0 0.2
2017-Oct-20 01:00N 48°31' W 122°37'0 0.6
2017-Oct-20 00:30N 48°31' W 122°37'0 0.1
2017-Oct-20 00:00N 48°31' W 122°36'0 0.1
2017-Oct-19 23:30N 48°31' W 122°36'0 0.5
2017-Oct-19 22:51N 48°31' W 122°37'0 0.0
2017-Oct-19 22:29N 48°31' W 122°37'0 0.0
2017-Oct-19 21:54N 48°31' W 122°37'0 0.0
2017-Oct-19 21:24N 48°31' W 122°37'0 0.0
2017-Oct-19 20:59N 48°31' W 122°37'0 0.0
2017-Oct-19 20:30N 48°31' W 122°37'0 0.0
2017-Oct-19 19:53N 48°31' W 122°37'0 0.0
2017-Oct-19 19:21N 48°31' W 122°37'0 0.0
2017-Oct-19 19:00N 48°31' W 122°37'0 0.0
2017-Oct-19 18:30N 48°31' W 122°37'0 0.0
2017-Oct-19 18:00N 48°31' W 122°37'0 0.0
2017-Oct-19 17:30N 48°31' W 122°37'0 0.0
2017-Oct-19 17:00N 48°31' W 122°37'0 0.0
2017-Oct-19 16:30N 48°31' W 122°37'0 0.0
2017-Oct-19 16:00N 48°31' W 122°37'0 0.0
2017-Oct-19 15:29N 48°31' W 122°37'0 0.0
2017-Oct-19 15:00N 48°31' W 122°37'0 0.0
2017-Oct-19 14:30N 48°31' W 122°37'0 0.0
2017-Oct-19 14:00N 48°31' W 122°37'0 0.0
2017-Oct-19 13:30N 48°31' W 122°37'0 0.0
2017-Oct-19 13:00N 48°31' W 122°37'0 0.0
2017-Oct-19 12:30N 48°31' W 122°37'0 0.0
2017-Oct-19 12:00N 48°31' W 122°37'0 0.0
2017-Oct-19 11:30N 48°31' W 122°37'0 0.0
2017-Oct-19 11:00N 48°31' W 122°37'0 0.0
2017-Oct-19 10:30N 48°31' W 122°37'0 0.0
2017-Oct-19 10:00N 48°31' W 122°37'0 0.0
2017-Oct-19 09:30N 48°31' W 122°37'0 0.0
2017-Oct-19 09:00N 48°31' W 122°37'0 0.0
2017-Oct-19 08:30N 48°31' W 122°37'0 0.0
2017-Oct-19 08:00N 48°31' W 122°37'0 0.0
2017-Oct-19 07:30N 48°31' W 122°37'0 0.0
2017-Oct-19 07:00N 48°31' W 122°37'0 0.0
2017-Oct-19 06:30N 48°31' W 122°37'0 0.0
2017-Oct-19 06:00N 48°31' W 122°37'0 0.0
2017-Oct-19 05:30N 48°31' W 122°37'0 0.0
2017-Oct-19 05:00N 48°31' W 122°37'0 0.0
2017-Oct-19 04:29N 48°31' W 122°37'2 4.5
2017-Oct-19 03:59N 48°32' W 122°34'5 9.6
2017-Oct-19 03:30N 48°37' W 122°35'5 9.6
2017-Oct-19 03:00N 48°39' W 122°41'5 9.9
2017-Oct-19 02:30N 48°43' W 122°46'5 9.8
2017-Oct-19 01:59N 48°47' W 122°52'5 9.8
2017-Oct-19 01:29N 48°49' W 122°58'510.0
2017-Oct-19 01:00N 48°52' W 123°04'510.3
2017-Oct-19 00:30N 48°55' W 123°10'5 9.6
2017-Oct-19 00:00N 48°58' W 123°16'5 9.2
2017-Oct-18 23:30N 49°02' W 123°20'4 8.8
2017-Oct-18 23:00N 49°05' W 123°24'4 8.3
2017-Oct-18 22:30N 49°09' W 123°23'4 8.1
2017-Oct-18 22:00N 49°13' W 123°21'4 8.9
2017-Oct-18 21:30N 49°18' W 123°20'5 9.9
2017-Oct-18 21:00N 49°19' W 123°12'4 7.0
2017-Oct-18 20:30N 49°18' W 123°07'1 1.7
2017-Oct-18 20:00N 49°18' W 123°06'2 4.7
2017-Oct-18 19:30N 49°19' W 123°09'2 3.2
2017-Oct-18 19:00N 49°19' W 123°12'1 2.5
2017-Oct-18 18:30N 49°18' W 123°14'2 3.2
2017-Oct-18 18:00N 49°18' W 123°16'2 4.6
2017-Oct-18 17:30N 49°16' W 123°18'2 4.8
2017-Oct-18 17:00N 49°14' W 123°19'2 4.6
2017-Oct-18 16:30N 49°12' W 123°19'2 4.9
2017-Oct-18 16:00N 49°09' W 123°19'2 4.7
2017-Oct-18 15:31N 49°07' W 123°20'2 4.9
2017-Oct-18 15:00N 49°04' W 123°21'6 5.7
2017-Oct-18 14:00N 49°01' W 123°14'3 5.6
2017-Oct-18 13:30N 48°59' W 123°11'3 5.2
2017-Oct-18 13:00N 48°57' W 123°08'3 5.2
2017-Oct-18 12:30N 48°55' W 123°05'2 4.6
2017-Oct-18 12:00N 48°54' W 123°03'2 4.9
2017-Oct-18 11:30N 48°52' W 122°60'2 4.6
2017-Oct-18 11:00N 48°51' W 122°57'2 5.0
2017-Oct-18 10:30N 48°49' W 122°54'2 4.6
2017-Oct-18 10:00N 48°48' W 122°51'3 5.3
2017-Oct-18 09:30N 48°46' W 122°48'2 4.6
2017-Oct-18 09:00N 48°45' W 122°45'3 5.5
2017-Oct-18 08:30N 48°42' W 122°43'3 5.5
2017-Oct-18 08:00N 48°40' W 122°43'3 5.7
2017-Oct-18 07:30N 48°37' W 122°45'3 6.4
2017-Oct-18 07:00N 48°34' W 122°45'3 5.2
2017-Oct-18 06:30N 48°31' W 122°44'3 5.2
2017-Oct-18 06:00N 48°29' W 122°44'2 4.3
2017-Oct-18 05:29N 48°26' W 122°44'2 4.5
2017-Oct-18 05:00N 48°24' W 122°44'2 4.4
2017-Oct-18 04:29N 48°22' W 122°45'2 4.9
2017-Oct-18 03:59N 48°20' W 122°46'7 4.7
2017-Oct-18 02:31N 48°13' W 122°48'1 6.7
2017-Oct-18 02:25N 48°12' W 122°48'4 7.8
2017-Oct-18 01:57N 48°10' W 122°44'4 9.1
2017-Oct-18 01:30N 48°07' W 122°40'4 7.8
2017-Oct-18 01:00N 48°03' W 122°38'4 7.9
2017-Oct-18 00:30N 47°60' W 122°36'4 7.5
2017-Oct-18 00:00N 47°57' W 122°32'3 5.9
2017-Oct-17 23:30N 47°55' W 122°29'3 5.6
2017-Oct-17 23:00N 47°52' W 122°28'3 5.6
2017-Oct-17 22:30N 47°49' W 122°27'3 6.0
2017-Oct-17 22:00N 47°46' W 122°26'3 5.5
2017-Oct-17 21:30N 47°44' W 122°26'3 5.3
2017-Oct-17 21:00N 47°41' W 122°27'2 4.6
2017-Oct-17 20:30N 47°39' W 122°27'3 5.3
2017-Oct-17 20:00N 47°37' W 122°24'2 4.5
2017-Oct-17 19:30N 47°36' W 122°21'1 2.4
2017-Oct-17 19:00N 47°35' W 122°21'0 0.4
2017-Oct-17 18:28N 47°34' W 122°21'0 0.0
2017-Oct-17 17:58N 47°34' W 122°21'0 0.0
2017-Oct-17 17:28N 47°34' W 122°21'0 0.0
2017-Oct-17 16:58N 47°34' W 122°21'0 0.0
2017-Oct-17 16:29N 47°34' W 122°21'0 0.0
2017-Oct-17 15:58N 47°34' W 122°21'0 0.0
2017-Oct-17 15:28N 47°34' W 122°21'0 0.0
2017-Oct-17 14:59N 47°34' W 122°21'0 0.0
2017-Oct-17 14:29N 47°34' W 122°21'0 0.0
2017-Oct-17 13:58N 47°34' W 122°21'0 0.0
2017-Oct-17 13:28N 47°34' W 122°21'0 0.0
2017-Oct-17 12:58N 47°34' W 122°21'0 0.0
2017-Oct-17 12:28N 47°34' W 122°21'0 0.0
2017-Oct-17 11:58N 47°34' W 122°21'0 0.0
2017-Oct-17 11:28N 47°34' W 122°21'0 0.0
2017-Oct-17 10:58N 47°34' W 122°21'0 0.0
2017-Oct-17 10:28N 47°34' W 122°21'0 0.0
2017-Oct-17 09:58N 47°34' W 122°21'0 0.0
2017-Oct-17 09:28N 47°34' W 122°21'0 0.0
2017-Oct-17 08:58N 47°34' W 122°21'0 0.0
2017-Oct-17 08:29N 47°34' W 122°21'0 0.0
2017-Oct-17 07:58N 47°34' W 122°21'0 0.0
2017-Oct-17 07:28N 47°34' W 122°21'0 0.0
2017-Oct-17 06:59N 47°34' W 122°21'0 0.0
2017-Oct-17 06:28N 47°34' W 122°21'0 0.0
2017-Oct-17 05:59N 47°34' W 122°21'0 0.0
2017-Oct-17 05:28N 47°34' W 122°21'0 0.0
2017-Oct-17 04:58N 47°34' W 122°21'0 0.0
2017-Oct-17 04:28N 47°34' W 122°21'0 0.0
2017-Oct-17 04:00N 47°34' W 122°21'0 0.0
2017-Oct-17 03:16N 47°34' W 122°21'0 0.0
2017-Oct-17 02:59N 47°34' W 122°21'0 0.0
2017-Oct-17 02:28N 47°34' W 122°21'0 0.0
2017-Oct-17 01:56N 47°34' W 122°21'0 0.0
2017-Oct-17 01:29N 47°34' W 122°21'0 0.0
2017-Oct-17 00:58N 47°34' W 122°21'0 0.0
2017-Oct-17 00:29N 47°34' W 122°21'0 0.0
2017-Oct-16 23:58N 47°34' W 122°21'0 0.0
2017-Oct-16 23:25N 47°34' W 122°21'0 0.0
2017-Oct-16 22:58N 47°34' W 122°21'0 0.0
2017-Oct-16 22:28N 47°34' W 122°21'0 0.0
2017-Oct-16 21:59N 47°34' W 122°21'0 0.0
2017-Oct-16 21:25N 47°34' W 122°21'0 0.1
2017-Oct-16 21:01N 47°34' W 122°21'0 0.1
2017-Oct-16 20:30N 47°34' W 122°21'0 0.0
2017-Oct-16 20:00N 47°34' W 122°21'0 0.0
2017-Oct-16 19:30N 47°34' W 122°21'0 0.0
2017-Oct-16 19:00N 47°34' W 122°21'0 0.0
2017-Oct-16 18:30N 47°34' W 122°21'0 0.0
2017-Oct-16 18:00N 47°34' W 122°21'1 1.9
2017-Oct-16 17:28N 47°35' W 122°21'0 0.0
2017-Oct-16 16:58N 47°35' W 122°21'0 0.0
2017-Oct-16 16:28N 47°35' W 122°21'0 0.0
2017-Oct-16 15:58N 47°35' W 122°21'0 0.0
2017-Oct-16 15:28N 47°35' W 122°21'0 0.0
2017-Oct-16 14:58N 47°35' W 122°21'0 0.0
2017-Oct-16 14:28N 47°35' W 122°21'0 0.0
2017-Oct-16 13:28N 47°35' W 122°21'0 0.0
2017-Oct-16 12:58N 47°35' W 122°21'0 0.0
2017-Oct-16 12:28N 47°35' W 122°21'0 0.0
2017-Oct-16 11:58N 47°35' W 122°21'0 0.0
2017-Oct-16 11:28N 47°35' W 122°21'0 0.0
2017-Oct-16 10:58N 47°35' W 122°21'0 0.0
2017-Oct-16 10:28N 47°35' W 122°21'0 0.0
2017-Oct-16 09:58N 47°35' W 122°21'0 0.0
2017-Oct-16 09:28N 47°35' W 122°21'0 0.0
2017-Oct-16 08:58N 47°35' W 122°21'0 0.0
2017-Oct-16 08:29N 47°35' W 122°21'0 0.0
2017-Oct-16 07:59N 47°35' W 122°21'0 0.0
2017-Oct-16 07:29N 47°35' W 122°21'0 0.0
2017-Oct-16 06:58N 47°35' W 122°21'0 0.0
2017-Oct-16 06:28N 47°35' W 122°21'0 0.0
2017-Oct-16 05:58N 47°35' W 122°21'0 0.0
2017-Oct-16 05:28N 47°35' W 122°21'0 0.0
2017-Oct-16 04:58N 47°35' W 122°21'0 0.0
2017-Oct-16 04:28N 47°35' W 122°21'0 0.0
2017-Oct-16 03:58N 47°35' W 122°21'0 0.0
2017-Oct-16 03:28N 47°35' W 122°21'0 0.0
2017-Oct-16 02:59N 47°35' W 122°21'0 0.0
2017-Oct-16 02:28N 47°35' W 122°21'0 0.0
2017-Oct-16 01:58N 47°35' W 122°21'0 0.0
2017-Oct-16 01:28N 47°35' W 122°21'0 0.0
2017-Oct-16 00:58N 47°35' W 122°21'0 0.0
2017-Oct-16 00:29N 47°35' W 122°21'1 2.1
2017-Oct-16 00:00N 47°34' W 122°21'0 0.0
2017-Oct-15 23:30N 47°34' W 122°21'0 0.0
2017-Oct-15 23:00N 47°34' W 122°21'0 0.0
2017-Oct-15 22:30N 47°34' W 122°21'0 0.0
2017-Oct-15 22:00N 47°34' W 122°21'0 0.0
2017-Oct-15 21:30N 47°34' W 122°21'0 0.0
2017-Oct-15 21:00N 47°34' W 122°21'0 0.1
2017-Oct-15 20:30N 47°34' W 122°21'0 0.0
2017-Oct-15 20:00N 47°34' W 122°21'0 0.0
2017-Oct-15 19:30N 47°34' W 122°21'0 0.0
2017-Oct-15 19:00N 47°34' W 122°21'0 0.0
2017-Oct-15 18:30N 47°34' W 122°21'0 0.0
2017-Oct-15 18:00N 47°34' W 122°21'0 0.0
2017-Oct-15 17:30N 47°34' W 122°21'1 1.8
2017-Oct-15 16:58N 47°35' W 122°21'0 0.0
2017-Oct-15 16:28N 47°35' W 122°21'0 0.0
2017-Oct-15 15:58N 47°35' W 122°21'0 0.0
2017-Oct-15 15:28N 47°35' W 122°21'0 0.0
2017-Oct-15 14:58N 47°35' W 122°21'0 0.0
2017-Oct-15 13:58N 47°35' W 122°21'0 0.0
2017-Oct-15 13:28N 47°35' W 122°21'0 0.0
2017-Oct-15 12:58N 47°35' W 122°21'0 0.0
2017-Oct-15 12:28N 47°35' W 122°21'0 0.0
2017-Oct-15 11:58N 47°35' W 122°21'0 0.0
2017-Oct-15 11:28N 47°35' W 122°21'0 0.0
2017-Oct-15 10:58N 47°35' W 122°21'0 0.0
2017-Oct-15 10:28N 47°35' W 122°21'0 0.0
2017-Oct-15 09:58N 47°35' W 122°21'0 0.0
2017-Oct-15 09:28N 47°35' W 122°21'0 0.0
2017-Oct-15 08:58N 47°35' W 122°21'0 0.0
2017-Oct-15 08:28N 47°35' W 122°21'0 0.0
2017-Oct-15 07:58N 47°35' W 122°21'0 0.0
2017-Oct-15 07:28N 47°35' W 122°21'0 0.0
2017-Oct-15 06:58N 47°35' W 122°21'0 0.0
2017-Oct-15 06:28N 47°35' W 122°21'0 0.0
2017-Oct-15 05:58N 47°35' W 122°21'0 0.0
2017-Oct-15 05:28N 47°35' W 122°21'0 0.0
2017-Oct-15 04:58N 47°35' W 122°21'0 0.0
2017-Oct-15 04:31N 47°35' W 122°21'0 0.0
2017-Oct-15 03:58N 47°35' W 122°21'0 0.0
2017-Oct-15 03:28N 47°35' W 122°21'0 0.0
2017-Oct-15 02:58N 47°35' W 122°21'0 0.0
2017-Oct-15 02:31N 47°35' W 122°21'0 0.0
2017-Oct-15 01:58N 47°35' W 122°21'0 0.2
2017-Oct-15 01:28N 47°35' W 122°21'0 0.2
2017-Oct-15 01:00N 47°36' W 122°21'2 3.3
2017-Oct-15 00:30N 47°36' W 122°23'3 6.7
2017-Oct-15 00:01N 47°33' W 122°26'4 8.2
2017-Oct-14 23:30N 47°29' W 122°24'4 7.7
2017-Oct-14 23:00N 47°26' W 122°23'3 6.7
2017-Oct-14 22:31N 47°22' W 122°22'4 7.8
2017-Oct-14 22:01N 47°20' W 122°26'3 5.3
2017-Oct-14 21:30N 47°17' W 122°25'1 2.3
2017-Oct-14 20:58N 47°17' W 122°23'0 0.0
2017-Oct-14 20:28N 47°17' W 122°23'0 0.0
2017-Oct-14 19:58N 47°17' W 122°23'0 0.0
2017-Oct-14 19:29N 47°17' W 122°23'0 0.0
2017-Oct-14 19:00N 47°17' W 122°23'0 0.0
2017-Oct-14 18:30N 47°17' W 122°23'0 0.0
2017-Oct-14 18:00N 47°17' W 122°23'0 0.0
2017-Oct-14 17:30N 47°17' W 122°23'0 0.0
2017-Oct-14 17:00N 47°17' W 122°23'0 0.0
2017-Oct-14 16:30N 47°17' W 122°23'0 0.0
2017-Oct-14 16:00N 47°17' W 122°23'0 0.0
2017-Oct-14 15:30N 47°17' W 122°23'0 0.0
2017-Oct-14 15:00N 47°17' W 122°23'0 0.0
2017-Oct-14 14:30N 47°17' W 122°23'0 0.0
2017-Oct-14 14:00N 47°17' W 122°23'0 0.0
2017-Oct-14 13:30N 47°17' W 122°23'0 0.0
2017-Oct-14 13:00N 47°17' W 122°23'0 0.0
2017-Oct-14 12:30N 47°17' W 122°23'0 0.0
2017-Oct-14 12:00N 47°17' W 122°23'0 0.0
2017-Oct-14 11:30N 47°17' W 122°23'0 0.0
2017-Oct-14 11:00N 47°17' W 122°23'0 0.0
2017-Oct-14 10:30N 47°17' W 122°23'0 0.0
2017-Oct-14 10:00N 47°17' W 122°23'0 0.0
2017-Oct-14 09:30N 47°17' W 122°23'0 0.0
2017-Oct-14 09:00N 47°17' W 122°23'0 0.0
2017-Oct-14 08:30N 47°17' W 122°23'0 0.0
2017-Oct-14 08:00N 47°17' W 122°23'0 0.0
2017-Oct-14 07:30N 47°17' W 122°23'0 0.0
2017-Oct-14 07:00N 47°17' W 122°23'0 0.0
2017-Oct-14 06:30N 47°17' W 122°23'0 0.5
2017-Oct-14 06:00N 47°17' W 122°24'1 2.5
2017-Oct-14 05:30N 47°17' W 122°25'1 1.5
2017-Oct-14 05:00N 47°17' W 122°26'1 2.1
2017-Oct-14 04:30N 47°18' W 122°27'3 5.8
2017-Oct-14 04:00N 47°21' W 122°26'3 6.7
2017-Oct-14 03:31N 47°23' W 122°22'3 6.1
2017-Oct-14 03:00N 47°26' W 122°24'3 6.3
2017-Oct-14 02:31N 47°29' W 122°26'3 6.4
2017-Oct-14 02:00N 47°32' W 122°27'3 6.2
2017-Oct-14 01:27N 47°35' W 122°28'3 6.0
2017-Oct-14 01:00N 47°38' W 122°28'3 6.0
2017-Oct-14 00:30N 47°41' W 122°28'3 5.8
2017-Oct-13 23:56N 47°44' W 122°27'3 5.8
2017-Oct-13 23:28N 47°47' W 122°27'3 5.9
2017-Oct-13 23:00N 47°50' W 122°28'3 5.8
2017-Oct-13 22:30N 47°52' W 122°29'3 5.6
2017-Oct-13 22:00N 47°55' W 122°31'3 5.5
2017-Oct-13 21:30N 47°57' W 122°34'3 5.8
2017-Oct-13 21:00N 47°59' W 122°37'23 6.2
2017-Oct-13 17:23N 48°20' W 122°47'3 5.9
2017-Oct-13 16:54N 48°23' W 122°46'2 5.1
2017-Oct-13 16:30N 48°25' W 122°45'3 5.2
2017-Oct-13 16:01N 48°27' W 122°45'3 5.1
2017-Oct-13 15:30N 48°30' W 122°45'3 5.5
2017-Oct-13 15:00N 48°33' W 122°45'3 5.7
2017-Oct-13 14:31N 48°36' W 122°45'3 6.3
2017-Oct-13 14:01N 48°39' W 122°44'3 6.6
2017-Oct-13 13:30N 48°42' W 122°45'4 7.1
2017-Oct-13 13:00N 48°45' W 122°48'4 7.6
2017-Oct-13 12:30N 48°47' W 122°53'4 7.8
2017-Oct-13 12:00N 48°49' W 122°58'4 7.8
2017-Oct-13 11:30N 48°51' W 123°03'4 7.5
2017-Oct-13 10:59N 48°53' W 123°07'4 7.5
2017-Oct-13 10:31N 48°56' W 123°11'4 7.3
2017-Oct-13 10:01N 48°58' W 123°15'4 7.4
2017-Oct-13 09:30N 49°01' W 123°20'4 7.5
2017-Oct-13 09:01N 49°03' W 123°24'3 6.8
2017-Oct-13 08:30N 49°06' W 123°25'3 6.7
2017-Oct-13 08:01N 49°10' W 123°24'3 6.7
2017-Oct-13 07:31N 49°13' W 123°23'3 6.4
2017-Oct-13 07:00N 49°16' W 123°21'3 6.5
2017-Oct-13 06:31N 49°18' W 123°18'3 6.3
2017-Oct-13 06:01N 49°19' W 123°13'3 5.8
2017-Oct-13 05:31N 49°19' W 123°09'2 4.9
2017-Oct-13 05:01N 49°18' W 123°06'3 5.0
2017-Oct-13 04:30N 49°18' W 123°02'2 4.7
2017-Oct-13 04:01N 49°18' W 122°58'2 4.9
2017-Oct-13 03:31N 49°18' W 122°54'1 2.2
2017-Oct-13 03:01N 49°18' W 122°53'0 0.1
2017-Oct-13 02:31N 49°18' W 122°53'0 0.0
2017-Oct-13 01:58N 49°18' W 122°53'0 0.0
2017-Oct-13 01:28N 49°18' W 122°53'0 0.0
2017-Oct-13 00:58N 49°18' W 122°53'0 0.0
2017-Oct-13 00:28N 49°18' W 122°53'0 0.0
2017-Oct-12 23:58N 49°18' W 122°53'0 0.0
2017-Oct-12 23:28N 49°18' W 122°53'0 0.0
2017-Oct-12 22:58N 49°18' W 122°53'0 0.0
2017-Oct-12 22:28N 49°18' W 122°53'0 0.0
2017-Oct-12 21:58N 49°18' W 122°53'0 0.0
2017-Oct-12 21:25N 49°18' W 122°53'0 0.0
2017-Oct-12 20:58N 49°18' W 122°53'0 0.0
2017-Oct-12 20:28N 49°18' W 122°53'0 0.0
2017-Oct-12 19:58N 49°18' W 122°53'0 0.0
2017-Oct-12 19:28N 49°18' W 122°53'0 0.0
2017-Oct-12 18:58N 49°18' W 122°53'0 0.0
2017-Oct-12 18:28N 49°18' W 122°53'0 0.0
2017-Oct-12 18:00N 49°18' W 122°53'0 0.0
2017-Oct-12 17:30N 49°18' W 122°53'0 0.0
2017-Oct-12 17:00N 49°18' W 122°53'0 0.0
2017-Oct-12 16:30N 49°18' W 122°53'0 0.0
2017-Oct-12 16:00N 49°18' W 122°53'0 0.0
2017-Oct-12 15:30N 49°18' W 122°53'0 0.0
2017-Oct-12 15:00N 49°18' W 122°53'0 0.0
2017-Oct-12 14:30N 49°18' W 122°53'0 0.0
2017-Oct-12 14:00N 49°18' W 122°53'0 0.0
2017-Oct-12 13:30N 49°18' W 122°53'0 0.0
2017-Oct-12 13:00N 49°18' W 122°53'0 0.0
2017-Oct-12 12:30N 49°18' W 122°53'0 0.0
2017-Oct-12 12:00N 49°18' W 122°53'0 0.0
2017-Oct-12 11:31N 49°18' W 122°53'0 0.0
2017-Oct-12 11:00N 49°18' W 122°53'0 0.0
2017-Oct-12 10:30N 49°18' W 122°53'0 0.0
2017-Oct-12 10:00N 49°18' W 122°53'0 0.0
2017-Oct-12 09:30N 49°18' W 122°53'0 0.0
2017-Oct-12 09:00N 49°18' W 122°53'0 0.0
2017-Oct-12 08:30N 49°18' W 122°53'0 0.0
2017-Oct-12 08:00N 49°18' W 122°53'0 0.0
2017-Oct-12 07:30N 49°18' W 122°53'0 0.0
2017-Oct-12 07:00N 49°18' W 122°53'1 1.3
2017-Oct-12 06:30N 49°18' W 122°54'3 5.2
2017-Oct-12 06:00N 49°18' W 122°58'3 5.7
2017-Oct-12 05:30N 49°18' W 123°02'2 3.4
2017-Oct-12 05:00N 49°18' W 123°05'0 0.4
2017-Oct-12 04:30N 49°18' W 123°05'2 3.8
2017-Oct-12 04:00N 49°19' W 123°08'3 6.9
2017-Oct-12 03:30N 49°19' W 123°13'3 5.9
2017-Oct-12 03:00N 49°17' W 123°17'3 5.6
2017-Oct-12 02:31N 49°15' W 123°18'2 4.9
2017-Oct-12 02:00N 49°12' W 123°19'2 3.3
2017-Oct-12 01:31N 49°11' W 123°19'1 2.1
2017-Oct-12 01:00N 49°10' W 123°19'2 3.5
2017-Oct-12 00:30N 49°08' W 123°20'2 4.0
2017-Oct-12 00:00N 49°06' W 123°20'2 3.9
2017-Oct-11 23:30N 49°04' W 123°20'2 4.0
2017-Oct-11 23:00N 49°02' W 123°18'2 4.2
2017-Oct-11 22:30N 49°01' W 123°16'2 4.5
2017-Oct-11 22:00N 48°59' W 123°13'3 5.2
2017-Oct-11 21:30N 48°58' W 123°10'2 4.9
2017-Oct-11 21:00N 48°56' W 123°08'2 4.6
2017-Oct-11 20:30N 48°54' W 123°05'2 4.3
2017-Oct-11 20:00N 48°53' W 123°02'2 4.3
2017-Oct-11 19:30N 48°52' W 122°60'2 4.4
2017-Oct-11 19:00N 48°51' W 122°57'2 4.4
2017-Oct-11 18:31N 48°49' W 122°54'2 4.7
2017-Oct-11 18:00N 48°48' W 122°52'3 4.8
2017-Oct-11 17:29N 48°47' W 122°48'3 5.2
2017-Oct-11 17:00N 48°45' W 122°45'72 4.2
2017-Oct-10 23:57N 47°34' W 122°21'0 0.0
2017-Oct-10 23:30N 47°34' W 122°21'0 0.0
2017-Oct-10 23:00N 47°34' W 122°21'0 0.0
2017-Oct-10 22:30N 47°34' W 122°21'0 0.0
2017-Oct-10 22:00N 47°34' W 122°21'0 0.0
2017-Oct-10 21:30N 47°34' W 122°21'0 0.0
2017-Oct-10 21:00N 47°34' W 122°21'0 0.0
2017-Oct-10 20:30N 47°34' W 122°21'0 0.0
2017-Oct-10 20:00N 47°34' W 122°21'0 0.0
2017-Oct-10 19:30N 47°34' W 122°21'0 0.0
2017-Oct-10 19:00N 47°34' W 122°21'0 0.0
2017-Oct-10 18:30N 47°34' W 122°21'0 0.0
2017-Oct-10 18:00N 47°34' W 122°21'0 0.0
2017-Oct-10 17:30N 47°34' W 122°21'0 0.0
2017-Oct-10 17:00N 47°34' W 122°21'0 0.0
2017-Oct-10 16:30N 47°34' W 122°21'0 0.0
2017-Oct-10 16:00N 47°34' W 122°21'0 0.0
2017-Oct-10 15:30N 47°34' W 122°21'0 0.0
2017-Oct-10 15:00N 47°34' W 122°21'0 0.1
2017-Oct-10 14:00N 47°34' W 122°21'0 0.0
2017-Oct-10 13:30N 47°34' W 122°21'0 0.0
2017-Oct-10 13:00N 47°34' W 122°21'0 0.0
2017-Oct-10 12:30N 47°34' W 122°21'0 0.0
2017-Oct-10 12:00N 47°34' W 122°21'0 0.0
2017-Oct-10 11:30N 47°34' W 122°21'0 0.0
2017-Oct-10 11:00N 47°34' W 122°21'0 0.0
2017-Oct-10 10:30N 47°34' W 122°21'0 0.0
2017-Oct-10 10:00N 47°34' W 122°21'0 0.0
2017-Oct-10 09:30N 47°34' W 122°21'0 0.0
2017-Oct-10 09:00N 47°34' W 122°21'0 0.0
2017-Oct-10 08:30N 47°34' W 122°21'0 0.0
2017-Oct-10 08:00N 47°34' W 122°21'0 0.0
2017-Oct-10 07:30N 47°34' W 122°21'0 0.0
2017-Oct-10 07:00N 47°34' W 122°21'0 0.0
2017-Oct-10 06:28N 47°34' W 122°21'0 0.0
2017-Oct-10 06:00N 47°34' W 122°21'0 0.0
2017-Oct-10 05:30N 47°34' W 122°21'0 0.0
2017-Oct-10 05:00N 47°34' W 122°21'  

Dump ship's entire track history